createdAt,value
2022-08-17T00:00:13.608Z,12.48
2022-08-17T00:03:17.174Z,8.68
2022-08-17T00:06:03.936Z,11.18
2022-08-17T00:08:37.563Z,7.25
2022-08-17T00:11:11.546Z,7.93
2022-08-17T00:13:42.653Z,10.20
2022-08-17T00:16:21.032Z,7.07
2022-08-17T00:19:11.699Z,6.95
2022-08-17T00:21:59.991Z,13.27
2022-08-17T00:26:56.590Z,8.07
2022-08-17T00:29:23.710Z,12.10
2022-08-17T00:31:51.611Z,8.00
2022-08-17T00:34:19.106Z,10.85
2022-08-17T00:36:46.312Z,14.27
2022-08-17T00:39:13.438Z,8.98
2022-08-17T00:41:42.548Z,10.05
2022-08-17T00:44:11.074Z,9.90
2022-08-17T00:46:42.270Z,8.10
2022-08-17T00:49:11.810Z,9.88
2022-08-17T00:51:44.380Z,8.52
2022-08-17T00:54:23.824Z,9.60
2022-08-17T00:56:56.937Z,11.52
2022-08-17T00:59:27.944Z,8.63
2022-08-17T01:01:55.073Z,9.18
2022-08-17T01:04:22.975Z,10.45
2022-08-17T01:06:51.328Z,12.13
2022-08-17T01:09:19.754Z,12.23
2022-08-17T01:11:52.439Z,11.07
2022-08-17T01:14:21.848Z,9.93
2022-08-17T01:16:51.392Z,9.65
2022-08-17T01:19:22.073Z,9.77
2022-08-17T01:22:12.979Z,9.48
2022-08-17T01:24:43.316Z,11.75
2022-08-17T01:27:11.413Z,11.07
2022-08-17T01:29:41.263Z,9.43
2022-08-17T01:32:09.479Z,12.38
2022-08-17T01:34:43.639Z,10.65
2022-08-17T01:37:19.085Z,11.27
2022-08-17T01:39:52.722Z,10.43
2022-08-17T01:42:30.871Z,11.20
2022-08-17T01:45:02.477Z,12.02
2022-08-17T01:47:29.909Z,8.82
2022-08-17T01:49:58.313Z,9.90
2022-08-17T01:52:25.519Z,8.52
2022-08-17T01:54:53.504Z,8.80
2022-08-17T01:57:20.674Z,9.68
2022-08-17T01:59:47.888Z,12.75
2022-08-17T02:02:31.175Z,12.43
2022-08-17T02:04:59.218Z,8.60
2022-08-17T02:07:27.140Z,11.68
2022-08-17T02:09:54.747Z,9.90
2022-08-17T02:12:47.444Z,10.43
2022-08-17T02:15:12.668Z,10.05
2022-08-17T02:17:41.130Z,15.57
2022-08-17T02:20:09.914Z,9.95
2022-08-17T02:22:40.238Z,11.65
2022-08-17T02:25:09.769Z,9.75
2022-08-17T02:27:38.618Z,9.67
2022-08-17T02:31:00.886Z,13.77
2022-08-17T02:32:56.267Z,11.30
2022-08-17T02:35:24.029Z,10.43
2022-08-17T02:37:51.950Z,10.50
2022-08-17T02:40:36.213Z,11.65
2022-08-17T02:43:04.394Z,10.25
2022-08-17T02:45:31.563Z,12.90
2022-08-17T02:47:58.720Z,11.10
2022-08-17T02:50:26.526Z,10.23
2022-08-17T02:53:02.421Z,10.15
2022-08-17T02:55:36.181Z,12.98
2022-08-17T02:58:04.176Z,14.75
2022-08-17T03:00:35.619Z,12.20
2022-08-17T03:03:04.861Z,12.10
2022-08-17T03:05:34.026Z,11.98
2022-08-17T03:08:01.403Z,10.90
2022-08-17T03:10:29.889Z,10.32
2022-08-17T03:12:56.932Z,12.48
2022-08-17T03:15:27.106Z,12.07
2022-08-17T03:17:55.756Z,11.18
2022-08-17T03:20:25.134Z,11.65
2022-08-17T03:22:55.243Z,12.00
2022-08-17T03:25:32.378Z,10.85
2022-08-17T03:28:01.796Z,9.32
2022-08-17T03:30:29.988Z,12.40
2022-08-17T03:33:00.337Z,12.50
2022-08-17T04:34:27.440Z,12.18
2022-08-17T04:36:55.073Z,12.23
2022-08-17T04:39:24.268Z,12.38
2022-08-17T04:42:17.270Z,10.45
2022-08-17T04:44:44.684Z,13.05
2022-08-17T04:47:11.885Z,12.48
2022-08-17T04:49:40.381Z,11.15
2022-08-17T04:52:07.428Z,9.23
2022-08-17T04:54:54.509Z,13.30
2022-08-17T04:57:21.600Z,10.55
2022-08-17T04:59:48.661Z,8.40
2022-08-17T05:02:15.682Z,8.95
2022-08-17T05:04:42.710Z,10.93
2022-08-17T05:07:10.624Z,7.78
2022-08-17T05:09:38.626Z,10.38
2022-08-17T05:12:06.445Z,12.75
2022-08-17T05:14:34.014Z,10.73
2022-08-17T05:17:01.731Z,10.88
2022-08-17T05:19:34.138Z,10.52
2022-08-17T05:22:05.711Z,7.68
2022-08-17T05:24:42.578Z,8.70
2022-08-17T05:27:19.169Z,8.57
2022-08-17T05:29:46.643Z,9.68
2022-08-17T05:32:38.000Z,8.20
2022-08-17T05:35:01.824Z,13.40
2022-08-17T05:37:28.904Z,9.32
2022-08-17T05:39:56.090Z,9.45
2022-08-17T05:42:24.452Z,9.07
2022-08-17T05:44:51.679Z,13.63
2022-08-17T05:47:18.917Z,8.55
2022-08-17T05:49:49.055Z,8.50
2022-08-17T05:52:35.038Z,8.50
2022-08-17T05:55:10.986Z,8.13
2022-08-17T05:58:01.454Z,8.82
2022-08-17T06:00:37.175Z,9.70
2022-08-17T06:03:24.405Z,9.43
2022-08-17T06:05:58.617Z,7.78
2022-08-17T06:08:35.114Z,7.15
2022-08-17T06:11:10.935Z,9.15
2022-08-17T06:13:53.169Z,7.35
2022-08-17T06:16:34.405Z,8.93
2022-08-17T06:19:10.875Z,7.30
2022-08-17T06:21:42.727Z,6.97
2022-08-17T06:24:21.835Z,7.45
2022-08-17T06:26:50.137Z,9.93
2022-08-17T06:29:40.093Z,8.38
2022-08-17T06:34:41.400Z,8.15
2022-08-17T06:37:42.827Z,6.10
2022-08-17T06:40:50.320Z,5.97
2022-08-17T06:43:40.373Z,6.55
2022-08-17T06:46:22.030Z,5.93
2022-08-17T06:49:13.964Z,6.38
2022-08-17T06:51:52.281Z,6.22
2022-08-17T06:54:40.741Z,5.20
2022-08-17T06:57:28.541Z,4.63
2022-08-17T07:00:17.653Z,5.63
2022-08-17T07:02:55.738Z,6.30
2022-08-17T07:05:38.822Z,4.70
2022-08-17T07:08:18.690Z,4.90
2022-08-17T07:10:54.444Z,4.97
2022-08-17T07:13:33.363Z,5.18
2022-08-17T07:16:15.129Z,8.48
2022-08-17T07:18:43.983Z,5.60
2022-08-17T07:21:26.745Z,4.75
2022-08-17T07:24:29.198Z,5.05
2022-08-17T07:27:28.447Z,4.18
2022-08-17T07:30:10.643Z,4.30
2022-08-17T07:32:45.363Z,6.60
2022-08-17T07:35:18.265Z,6.30
2022-08-17T07:38:07.302Z,4.63
2022-08-17T07:41:13.836Z,6.90
2022-08-17T07:43:40.998Z,3.92
2022-08-17T07:46:43.289Z,3.90
2022-08-17T07:49:10.402Z,4.88
2022-08-17T07:51:59.986Z,3.70
2022-08-17T07:54:42.532Z,4.18
2022-08-17T07:57:15.363Z,4.20
2022-08-17T08:00:02.359Z,5.18
2022-08-17T08:02:45.787Z,5.82
2022-08-17T08:05:46.619Z,5.07
2022-08-17T08:08:30.302Z,4.30
2022-08-17T08:11:07.374Z,3.78
2022-08-17T08:13:36.202Z,7.20
2022-08-17T08:16:20.100Z,3.97
2022-08-17T08:18:56.085Z,4.97
2022-08-17T08:21:59.241Z,4.82
2022-08-17T08:24:52.377Z,4.45
2022-08-17T08:27:52.289Z,6.10
2022-08-17T08:33:04.444Z,10.23
2022-08-17T08:35:45.789Z,8.05
2022-08-17T08:38:37.933Z,4.60
2022-08-17T08:41:23.095Z,4.40
2022-08-17T08:44:21.823Z,5.90
2022-08-17T08:47:25.298Z,4.15
2022-08-17T08:50:37.437Z,3.45
2022-08-17T08:53:12.253Z,5.25
2022-08-17T08:56:04.697Z,6.57
2022-08-17T08:58:43.677Z,7.60
2022-08-17T09:01:26.037Z,3.38
2022-08-17T09:04:24.812Z,3.42
2022-08-17T09:07:17.403Z,8.27
2022-08-17T09:09:58.693Z,6.70
2022-08-17T09:12:47.798Z,4.45
2022-08-17T09:15:33.637Z,5.18
2022-08-17T09:19:03.121Z,4.60
2022-08-17T09:21:58.186Z,3.92
2022-08-17T09:24:49.275Z,4.20
2022-08-17T09:29:57.893Z,4.05
2022-08-17T09:32:29.227Z,4.00
2022-08-17T09:35:02.203Z,5.07
2022-08-17T09:37:41.967Z,5.43
2022-08-17T09:40:33.990Z,3.80
2022-08-17T09:43:22.615Z,3.15
2022-08-17T09:45:57.399Z,3.17
2022-08-17T09:48:33.291Z,5.43
2022-08-17T09:51:15.630Z,3.38
2022-08-17T09:53:44.685Z,6.15
2022-08-17T09:56:18.160Z,6.13
2022-08-17T09:59:06.441Z,3.38
2022-08-17T10:01:40.034Z,5.60
2022-08-17T10:04:20.312Z,6.75
2022-08-17T10:07:11.693Z,6.50
2022-08-17T10:10:14.402Z,4.22
2022-08-17T10:13:03.359Z,3.28
2022-08-17T10:15:53.924Z,4.45
2022-08-17T10:21:32.495Z,5.75
2022-08-17T10:24:39.476Z,3.13
2022-08-17T10:27:45.131Z,3.53
2022-08-17T10:30:17.803Z,5.22
2022-08-17T10:32:55.921Z,3.00
2022-08-17T10:35:42.219Z,3.17
2022-08-17T10:38:25.523Z,6.13
2022-08-17T10:41:04.602Z,5.78
2022-08-17T10:43:34.542Z,4.67
2022-08-17T10:49:17.232Z,5.55
2022-08-17T10:51:48.066Z,5.00
2022-08-17T10:54:24.374Z,3.85
2022-08-17T10:56:56.987Z,6.15
2022-08-17T10:59:36.221Z,3.05
2022-08-17T11:02:32.127Z,3.17
2022-08-17T11:05:28.822Z,6.20
2022-08-17T11:08:17.532Z,2.90
2022-08-17T11:10:52.301Z,6.00
2022-08-17T11:13:23.269Z,4.00
2022-08-17T11:16:22.021Z,3.03
2022-08-17T11:19:10.803Z,4.38
2022-08-17T11:22:11.937Z,3.03
2022-08-17T11:24:48.112Z,3.85
2022-08-17T11:27:32.543Z,7.03
2022-08-17T11:30:11.082Z,6.38
2022-08-17T11:32:54.720Z,4.82
2022-08-17T11:35:22.465Z,2.75
2022-08-17T11:37:52.646Z,3.88
2022-08-17T11:40:35.160Z,4.78
2022-08-17T11:43:08.363Z,4.55
2022-08-17T11:45:44.301Z,2.90
2022-08-17T11:48:51.422Z,4.40
2022-08-17T11:51:34.316Z,3.20
2022-08-17T11:54:34.397Z,5.20
2022-08-17T11:57:27.665Z,4.25
2022-08-17T12:00:12.619Z,4.07
2022-08-17T12:02:48.806Z,2.97
2022-08-17T12:05:21.179Z,2.80
2022-08-17T12:07:52.415Z,3.50
2022-08-17T12:10:30.508Z,4.43
2022-08-17T12:12:59.579Z,3.97
2022-08-17T12:15:34.693Z,2.85
2022-08-17T12:18:01.939Z,2.75
2022-08-17T12:20:34.918Z,2.90
2022-08-17T12:23:17.052Z,2.97
2022-08-17T12:25:47.788Z,3.13
2022-08-17T12:28:30.478Z,4.05
2022-08-17T12:31:06.249Z,3.80
2022-08-17T12:33:35.930Z,5.32
2022-08-17T12:38:38.054Z,3.10
2022-08-17T12:41:25.905Z,3.17
2022-08-17T12:44:02.465Z,4.60
2022-08-17T12:46:55.619Z,4.25
2022-08-17T12:49:26.980Z,3.10
2022-08-17T12:52:12.547Z,4.20
2022-08-17T12:54:51.644Z,3.50
2022-08-17T12:57:26.040Z,3.38
2022-08-17T13:00:20.124Z,2.85
2022-08-17T13:02:51.069Z,5.45
2022-08-17T13:05:37.340Z,2.90
2022-08-17T13:08:20.749Z,3.40
2022-08-17T13:10:57.084Z,7.28
2022-08-17T13:13:27.063Z,3.90
2022-08-17T13:16:02.277Z,3.80
2022-08-17T13:18:47.078Z,4.28
2022-08-17T13:21:30.702Z,3.03
2022-08-17T13:23:59.248Z,5.18
2022-08-17T13:26:35.217Z,3.10
2022-08-17T13:29:05.895Z,9.50
2022-08-17T13:31:53.018Z,2.92
2022-08-17T13:34:27.046Z,4.30
2022-08-17T13:37:30.006Z,3.03
2022-08-17T13:40:00.266Z,3.13
2022-08-17T13:42:33.382Z,2.85
2022-08-17T13:45:36.053Z,6.03
2022-08-17T13:48:15.943Z,3.80
2022-08-17T13:50:43.205Z,2.65
2022-08-17T13:53:32.828Z,2.55
2022-08-17T13:56:00.120Z,3.65
2022-08-17T13:58:28.764Z,2.58
2022-08-17T14:00:56.481Z,3.53
2022-08-17T14:03:24.884Z,3.30
2022-08-17T14:05:53.110Z,9.18
2022-08-17T14:08:21.067Z,3.83
2022-08-17T14:10:58.206Z,3.13
2022-08-17T14:13:25.436Z,3.60
2022-08-17T14:15:54.890Z,4.03
2022-08-17T14:18:52.007Z,5.88
2022-08-17T14:21:11.963Z,3.38
2022-08-17T14:23:39.434Z,5.32
2022-08-17T14:26:06.694Z,4.25
2022-08-17T14:28:33.756Z,4.28
2022-08-17T14:31:03.716Z,5.07
2022-08-17T14:33:30.766Z,3.78
2022-08-17T14:35:58.258Z,4.28
2022-08-17T14:38:25.343Z,5.65
2022-08-17T14:40:52.757Z,4.68
2022-08-17T14:43:20.569Z,4.30
2022-08-17T14:45:47.684Z,3.00
2022-08-17T14:48:14.887Z,4.43
2022-08-17T14:50:44.244Z,3.70
2022-08-17T14:53:13.621Z,3.40
2022-08-17T14:55:40.789Z,5.88
2022-08-17T14:58:09.166Z,3.28
2022-08-17T15:00:37.567Z,7.53
2022-08-17T15:03:05.492Z,3.15
2022-08-17T15:05:35.279Z,3.17
2022-08-17T15:10:30.479Z,4.65
2022-08-17T15:12:58.522Z,4.07
2022-08-17T15:15:25.915Z,2.83
2022-08-17T15:17:53.227Z,3.83
2022-08-17T15:20:27.757Z,3.20
2022-08-17T15:22:57.393Z,2.75
2022-08-17T15:25:27.848Z,4.57
2022-08-17T15:27:56.122Z,5.65
2022-08-17T15:30:26.700Z,4.00
2022-08-17T15:32:55.239Z,3.90
2022-08-17T15:35:29.313Z,3.13
2022-08-17T15:38:07.878Z,4.88
2022-08-17T15:40:39.456Z,5.47
2022-08-17T15:43:13.228Z,5.65
2022-08-17T15:45:41.106Z,5.07
2022-08-17T15:48:09.148Z,4.05
2022-08-17T15:50:36.686Z,3.00
2022-08-17T15:53:05.031Z,6.25
2022-08-17T15:55:33.537Z,5.60
2022-08-17T15:58:01.942Z,4.13
2022-08-17T16:00:29.669Z,6.80
2022-08-17T16:03:45.399Z,3.55
2022-08-17T16:05:47.486Z,4.35
2022-08-17T16:08:20.019Z,4.50
2022-08-17T16:10:49.530Z,3.92
2022-08-17T16:13:18.173Z,3.40
2022-08-17T16:15:56.669Z,5.67
2022-08-17T16:18:26.668Z,3.15
2022-08-17T16:23:20.898Z,2.90
2022-08-17T16:25:52.798Z,3.00
2022-08-17T16:28:22.738Z,2.88
2022-08-17T16:31:03.461Z,5.10
2022-08-17T16:33:30.508Z,3.22
2022-08-17T16:35:57.671Z,3.88
2022-08-17T16:38:24.808Z,5.53
2022-08-17T16:40:51.890Z,3.35
2022-08-17T16:43:18.914Z,4.00
2022-08-17T16:45:51.877Z,4.63
2022-08-17T16:48:19.893Z,3.08
2022-08-17T16:50:59.942Z,3.80
2022-08-17T16:53:31.680Z,2.90
2022-08-17T16:55:58.809Z,3.53
2022-08-17T16:58:25.847Z,6.13
2022-08-17T17:03:29.294Z,4.53
2022-08-17T17:06:07.494Z,3.63
2022-08-17T17:08:58.773Z,6.03
2022-08-17T17:11:41.585Z,14.60
2022-08-17T17:14:28.473Z,6.10
2022-08-17T17:17:10.914Z,2.97
2022-08-17T17:20:05.766Z,3.08
2022-08-17T17:23:07.835Z,3.10
2022-08-17T17:25:54.946Z,4.60
2022-08-17T17:28:33.647Z,3.05
2022-08-17T17:31:08.169Z,2.65
2022-08-17T17:33:50.667Z,3.90
2022-08-17T17:36:40.130Z,3.03
2022-08-17T17:39:15.408Z,5.95
2022-08-17T17:41:53.034Z,5.97
2022-08-17T17:44:41.063Z,3.70
2022-08-17T17:47:08.632Z,5.32
2022-08-17T17:49:45.449Z,3.20
2022-08-17T17:52:21.051Z,4.60
2022-08-17T17:54:54.150Z,3.83
2022-08-17T17:57:25.015Z,4.03
2022-08-17T18:00:10.366Z,2.90
2022-08-17T18:02:55.364Z,4.03
2022-08-17T18:05:34.460Z,3.58
2022-08-17T18:08:46.703Z,4.10
2022-08-17T18:11:36.357Z,10.23
2022-08-17T18:14:14.507Z,4.10
2022-08-17T18:16:46.487Z,4.18
2022-08-17T18:19:20.876Z,3.67
2022-08-17T18:21:54.596Z,5.82
2022-08-17T18:24:35.091Z,3.60
2022-08-17T18:27:08.668Z,3.53
2022-08-17T18:29:44.335Z,4.93
2022-08-17T18:32:28.634Z,5.53
2022-08-17T18:35:28.001Z,9.18
2022-08-17T18:38:20.085Z,6.47
2022-08-17T18:41:01.863Z,6.72
2022-08-17T18:43:44.265Z,7.75
2022-08-17T18:46:28.869Z,3.90
2022-08-17T18:49:00.742Z,3.83
2022-08-17T18:51:42.336Z,4.88
2022-08-17T18:54:16.734Z,8.13
2022-08-17T18:56:48.938Z,10.77
2022-08-17T18:59:23.274Z,6.78
2022-08-17T19:02:20.679Z,8.15
2022-08-17T19:05:08.169Z,8.20
2022-08-17T19:07:45.580Z,8.20
2022-08-17T19:10:24.304Z,4.78
2022-08-17T19:13:24.510Z,8.48
2022-08-17T19:16:15.763Z,5.78
2022-08-17T19:18:54.425Z,10.90
2022-08-17T19:21:33.461Z,4.72
2022-08-17T19:24:30.417Z,6.53
2022-08-17T19:27:19.815Z,4.75
2022-08-17T19:30:01.717Z,7.28
2022-08-17T19:32:34.784Z,4.38
2022-08-17T19:35:04.288Z,5.88
2022-08-17T19:37:50.166Z,8.73
2022-08-17T19:40:54.056Z,5.10
2022-08-17T19:43:59.351Z,6.47
2022-08-17T19:46:35.700Z,7.68
2022-08-17T19:49:32.988Z,7.22
2022-08-17T19:52:27.292Z,4.65
2022-08-17T19:55:21.045Z,4.47
2022-08-17T19:57:52.911Z,3.83
2022-08-17T20:00:20.139Z,4.18
2022-08-17T20:03:16.427Z,5.15
2022-08-17T20:06:15.082Z,5.78
2022-08-17T20:09:01.263Z,7.28
2022-08-17T20:11:48.904Z,7.47
2022-08-17T20:14:22.102Z,5.40
2022-08-17T20:16:49.427Z,5.85
2022-08-17T20:19:56.496Z,3.72
2022-08-17T20:22:30.458Z,7.78
2022-08-17T20:27:47.885Z,10.23
2022-08-17T20:30:34.957Z,4.80
2022-08-17T20:33:02.847Z,4.65
2022-08-17T20:35:32.771Z,5.20
2022-08-17T20:38:12.932Z,8.02
2022-08-17T20:43:33.061Z,7.38
2022-08-17T20:46:21.602Z,6.80
2022-08-17T20:48:57.058Z,8.88
2022-08-17T20:51:29.794Z,5.63
2022-08-17T20:54:19.587Z,4.85
2022-08-17T20:56:49.900Z,6.00
2022-08-17T20:59:25.762Z,9.82
2022-08-17T21:02:21.947Z,5.50
2022-08-17T21:04:53.032Z,6.68
2022-08-17T21:07:43.431Z,5.72
2022-08-17T21:10:19.692Z,9.32
2022-08-17T21:12:53.925Z,7.40
2022-08-17T21:15:42.285Z,7.80
2022-08-17T21:18:27.442Z,6.15
2022-08-17T21:21:18.048Z,10.57
2022-08-17T21:24:02.087Z,6.05
2022-08-17T21:26:50.590Z,5.53
2022-08-17T21:29:31.046Z,6.80
2022-08-17T21:32:00.637Z,8.35
2022-08-17T21:34:33.296Z,9.88
2022-08-17T21:37:23.393Z,8.68
2022-08-17T21:42:32.234Z,5.72
2022-08-17T21:45:12.589Z,7.57
2022-08-17T21:47:43.555Z,8.07
2022-08-17T21:50:20.328Z,6.88
2022-08-17T21:52:48.890Z,5.70
2022-08-17T21:55:29.824Z,7.20
2022-08-17T21:58:19.609Z,6.35
2022-08-17T22:00:46.720Z,12.35
2022-08-17T22:03:26.257Z,9.20
2022-08-17T22:05:53.430Z,7.70
2022-08-17T22:08:23.740Z,6.55
2022-08-17T22:10:59.644Z,6.85
2022-08-17T22:13:29.637Z,8.77
2022-08-17T22:18:58.242Z,6.72
2022-08-17T22:21:26.466Z,4.40
2022-08-17T22:24:06.827Z,5.18
2022-08-17T22:27:05.189Z,6.78
2022-08-17T22:29:57.665Z,11.80
2022-08-17T22:32:46.516Z,13.63
2022-08-17T22:35:34.955Z,11.15
2022-08-17T22:38:20.510Z,7.85
2022-08-17T22:40:52.050Z,8.15
2022-08-17T22:43:28.965Z,11.35
2022-08-17T22:46:00.207Z,8.43
2022-08-17T22:48:29.584Z,10.40
2022-08-17T22:51:13.708Z,11.20
2022-08-17T22:54:12.481Z,11.88
2022-08-17T22:57:18.907Z,11.23
2022-08-17T22:59:50.637Z,9.25
2022-08-17T23:02:23.729Z,12.18
2022-08-17T23:05:00.401Z,8.43
2022-08-17T23:07:27.472Z,12.02
2022-08-17T23:09:54.653Z,11.05
2022-08-17T23:12:26.611Z,10.20
2022-08-17T23:15:01.407Z,9.60
2022-08-17T23:17:35.073Z,10.95
2022-08-17T23:20:08.473Z,11.48
2022-08-17T23:22:38.296Z,12.82
2022-08-17T23:25:28.238Z,8.68
2022-08-17T23:27:57.542Z,13.55
2022-08-17T23:30:25.746Z,11.13
2022-08-17T23:32:59.536Z,10.18
2022-08-17T23:35:39.042Z,13.77
2022-08-17T23:38:12.307Z,9.77
2022-08-17T23:40:40.612Z,10.95
2022-08-17T23:43:23.777Z,12.10
2022-08-17T23:45:54.246Z,9.18
2022-08-17T23:48:28.555Z,12.15
2022-08-17T23:51:06.040Z,9.10
2022-08-17T23:53:35.052Z,10.05
2022-08-17T23:56:04.000Z,11.75
2022-08-17T23:58:38.663Z,9.82
